sensor_id;sensor_type;location;lat;lon;timestamp;pressure;altitude;pressure_sealevel;temperature;humidity
76973;BME280;65907;53.640;10.050;2023-02-28T00:00:49;102475.63;;;23.08;30.97
76973;BME280;65907;53.640;10.050;2023-02-28T00:03:14;102475.09;;;23.03;31.28
76973;BME280;65907;53.640;10.050;2023-02-28T00:05:40;102479.28;;;23.05;31.18
76973;BME280;65907;53.640;10.050;2023-02-28T00:08:06;102473.34;;;23.16;31.04
76973;BME280;65907;53.640;10.050;2023-02-28T00:10:33;102478.16;;;23.10;31.11
76973;BME280;65907;53.640;10.050;2023-02-28T00:13:00;102483.22;;;23.13;31.24
76973;BME280;65907;53.640;10.050;2023-02-28T00:15:27;102480.25;;;23.17;31.20
76973;BME280;65907;53.640;10.050;2023-02-28T00:17:52;102475.13;;;23.16;30.90
76973;BME280;65907;53.640;10.050;2023-02-28T00:20:17;102472.34;;;23.04;31.12
76973;BME280;65907;53.640;10.050;2023-02-28T00:22:44;102466.53;;;23.14;31.15
76973;BME280;65907;53.640;10.050;2023-02-28T00:25:10;102472.91;;;23.10;30.99
76973;BME280;65907;53.640;10.050;2023-02-28T00:27:36;102472.34;;;23.04;31.13
76973;BME280;65907;53.640;10.050;2023-02-28T00:30:02;102465.44;;;23.03;30.88
76973;BME280;65907;53.640;10.050;2023-02-28T00:32:28;102465.66;;;23.13;30.78
76973;BME280;65907;53.640;10.050;2023-02-28T00:34:55;102470.28;;;23.10;31.00
76973;BME280;65907;53.640;10.050;2023-02-28T00:37:21;102467.03;;;23.06;30.88
76973;BME280;65907;53.640;10.050;2023-02-28T00:39:48;102464.69;;;23.01;30.88
76973;BME280;65907;53.640;10.050;2023-02-28T00:42:15;102469.09;;;23.01;31.12
76973;BME280;65907;53.640;10.050;2023-02-28T00:44:40;102461.25;;;23.01;30.89
76973;BME280;65907;53.640;10.050;2023-02-28T00:47:05;102463.75;;;23.02;30.98
76973;BME280;65907;53.640;10.050;2023-02-28T00:49:33;102466.56;;;22.99;30.96
76973;BME280;65907;53.640;10.050;2023-02-28T00:51:58;102458.91;;;22.96;31.07
76973;BME280;65907;53.640;10.050;2023-02-28T00:54:24;102463.13;;;22.99;30.90
76973;BME280;65907;53.640;10.050;2023-02-28T00:56:49;102461.13;;;23.02;30.82
76973;BME280;65907;53.640;10.050;2023-02-28T00:59:15;102470.59;;;23.05;30.87
76973;BME280;65907;53.640;10.050;2023-02-28T01:01:41;102468.03;;;23.03;30.83
76973;BME280;65907;53.640;10.050;2023-02-28T01:04:09;102469.09;;;23.01;30.96
76973;BME280;65907;53.640;10.050;2023-02-28T01:06:35;102476.84;;;23.02;30.93
76973;BME280;65907;53.640;10.050;2023-02-28T01:09:01;102469.94;;;23.01;31.04
76973;BME280;65907;53.640;10.050;2023-02-28T01:11:29;102471.63;;;23.02;30.60
76973;BME280;65907;53.640;10.050;2023-02-28T01:13:54;102472.88;;;22.97;30.63
76973;BME280;65907;53.640;10.050;2023-02-28T01:16:22;102466.16;;;23.05;30.57
76973;BME280;65907;53.640;10.050;2023-02-28T01:18:48;102470.13;;;22.98;30.94
76973;BME280;65907;53.640;10.050;2023-02-28T01:21:15;102469.41;;;22.96;30.73
76973;BME280;65907;53.640;10.050;2023-02-28T01:23:41;102473.69;;;22.97;30.94
76973;BME280;65907;53.640;10.050;2023-02-28T01:26:13;102472.97;;;22.95;30.90
76973;BME280;65907;53.640;10.050;2023-02-28T01:28:39;102477.47;;;22.93;30.90
76973;BME280;65907;53.640;10.050;2023-02-28T01:31:08;102475.13;;;22.88;30.94
76973;BME280;65907;53.640;10.050;2023-02-28T01:33:35;102477.28;;;22.96;30.79
76973;BME280;65907;53.640;10.050;2023-02-28T01:36:01;102470.88;;;23.00;30.66
76973;BME280;65907;53.640;10.050;2023-02-28T01:38:26;102475.19;;;23.01;30.68
76973;BME280;65907;53.640;10.050;2023-02-28T01:40:52;102471.63;;;23.02;30.65
76973;BME280;65907;53.640;10.050;2023-02-28T01:43:22;102472.19;;;23.08;30.83
76973;BME280;65907;53.640;10.050;2023-02-28T01:45:48;102466.09;;;23.07;30.72
76973;BME280;65907;53.640;10.050;2023-02-28T01:48:13;102468.38;;;22.99;30.54
76973;BME280;65907;53.640;10.050;2023-02-28T01:50:39;102470.78;;;23.02;30.49
76973;BME280;65907;53.640;10.050;2023-02-28T01:53:06;102465.09;;;22.95;30.72
76973;BME280;65907;53.640;10.050;2023-02-28T01:55:32;102468.84;;;22.91;30.99
76973;BME280;65907;53.640;10.050;2023-02-28T01:58:01;102471.06;;;22.97;30.43
76973;BME280;65907;53.640;10.050;2023-02-28T02:00:27;102473.41;;;23.02;30.48
76973;BME280;65907;53.640;10.050;2023-02-28T02:02:54;102472.97;;;22.95;30.67
76973;BME280;65907;53.640;10.050;2023-02-28T02:05:24;102473.50;;;23.00;30.62
76973;BME280;65907;53.640;10.050;2023-02-28T02:07:54;102463.31;;;22.96;30.43
76973;BME280;65907;53.640;10.050;2023-02-28T02:10:21;102461.72;;;22.93;30.62
76973;BME280;65907;53.640;10.050;2023-02-28T02:15:25;102457.75;;;23.00;30.26
76973;BME280;65907;53.640;10.050;2023-02-28T02:17:55;102460.78;;;22.94;30.37
76973;BME280;65907;53.640;10.050;2023-02-28T02:26:06;102448.31;;;22.98;30.55
76973;BME280;65907;53.640;10.050;2023-02-28T02:29:03;102446.72;;;22.95;30.67
76973;BME280;65907;53.640;10.050;2023-02-28T02:36:27;102445.44;;;22.88;30.57
76973;BME280;65907;53.640;10.050;2023-02-28T02:39:11;102438.94;;;22.94;30.53
76973;BME280;65907;53.640;10.050;2023-02-28T02:41:52;102445.44;;;22.88;30.59
76973;BME280;65907;53.640;10.050;2023-02-28T02:44:23;102444.59;;;22.87;30.52
76973;BME280;65907;53.640;10.050;2023-02-28T02:46:50;102449.97;;;22.86;30.53
76973;BME280;65907;53.640;10.050;2023-02-28T02:49:21;102448.56;;;22.80;30.71
76973;BME280;65907;53.640;10.050;2023-02-28T02:51:51;102456.22;;;22.83;30.41
76973;BME280;65907;53.640;10.050;2023-02-28T02:54:19;102458.56;;;22.88;30.49
76973;BME280;65907;53.640;10.050;2023-02-28T02:56:46;102458.38;;;22.91;30.68
76973;BME280;65907;53.640;10.050;2023-02-28T02:59:16;102461.94;;;22.90;30.27
76973;BME280;65907;53.640;10.050;2023-02-28T03:01:46;102462.56;;;22.94;30.62
76973;BME280;65907;53.640;10.050;2023-02-28T03:04:16;102460.13;;;22.90;30.47
76973;BME280;65907;53.640;10.050;2023-02-28T03:06:41;102451.44;;;22.90;30.13
76973;BME280;65907;53.640;10.050;2023-02-28T03:09:07;102462.00;;;22.88;30.41
76973;BME280;65907;53.640;10.050;2023-02-28T03:11:32;102453.13;;;22.91;30.52
76973;BME280;65907;53.640;10.050;2023-02-28T03:26:58;102445.78;;;22.96;30.45
76973;BME280;65907;53.640;10.050;2023-02-28T03:31:52;102443.25;;;22.95;30.21
76973;BME280;65907;53.640;10.050;2023-02-28T03:34:22;102448.63;;;22.93;30.10
76973;BME280;65907;53.640;10.050;2023-02-28T03:36:50;102444.75;;;22.99;30.02
76973;BME280;65907;53.640;10.050;2023-02-28T03:39:20;102440.47;;;22.98;30.28
76973;BME280;65907;53.640;10.050;2023-02-28T03:41:51;102437.72;;;22.99;30.33
76973;BME280;65907;53.640;10.050;2023-02-28T03:44:19;102444.31;;;22.92;29.97
76973;BME280;65907;53.640;10.050;2023-02-28T03:46:55;102441.56;;;22.94;30.04
76973;BME280;65907;53.640;10.050;2023-02-28T03:49:23;102448.63;;;22.93;30.04
76973;BME280;65907;53.640;10.050;2023-02-28T03:51:49;102438.31;;;22.90;30.35
76973;BME280;65907;53.640;10.050;2023-02-28T03:54:17;102437.00;;;22.83;30.51
76973;BME280;65907;53.640;10.050;2023-02-28T03:57:00;102438.22;;;22.91;30.29
76973;BME280;65907;53.640;10.050;2023-02-28T03:59:34;102439.47;;;22.86;30.11
76973;BME280;65907;53.640;10.050;2023-02-28T04:02:02;102442.25;;;22.83;30.26
76973;BME280;65907;53.640;10.050;2023-02-28T04:04:27;102439.75;;;22.81;30.43
76973;BME280;65907;53.640;10.050;2023-02-28T04:06:53;102447.50;;;22.83;30.02
76973;BME280;65907;53.640;10.050;2023-02-28T04:09:27;102440.28;;;22.86;30.24
76973;BME280;65907;53.640;10.050;2023-02-28T04:11:52;102445.09;;;22.80;30.17
76973;BME280;65907;53.640;10.050;2023-02-28T04:14:18;102443.78;;;22.87;30.09
76973;BME280;65907;53.640;10.050;2023-02-28T04:16:43;102443.19;;;22.82;30.18
76973;BME280;65907;53.640;10.050;2023-02-28T04:19:09;102447.22;;;22.87;30.04
76973;BME280;65907;53.640;10.050;2023-02-28T04:21:38;102450.69;;;22.88;29.90
76973;BME280;65907;53.640;10.050;2023-02-28T04:24:10;102445.44;;;22.88;29.97
76973;BME280;65907;53.640;10.050;2023-02-28T04:26:39;102446.59;;;22.84;30.07
76973;BME280;65907;53.640;10.050;2023-02-28T04:29:05;102451.63;;;22.87;30.20
76973;BME280;65907;53.640;10.050;2023-02-28T04:31:30;102454.47;;;22.84;30.37
76973;BME280;65907;53.640;10.050;2023-02-28T04:33:56;102450.69;;;22.88;29.87
76973;BME280;65907;53.640;10.050;2023-02-28T04:36:21;102449.03;;;22.87;29.71
76973;BME280;65907;53.640;10.050;2023-02-28T04:38:48;102455.09;;;22.87;30.16
76973;BME280;65907;53.640;10.050;2023-02-28T04:41:13;102457.09;;;22.84;30.08
76973;BME280;65907;53.640;10.050;2023-02-28T04:43:38;102455.09;;;22.87;30.06
76973;BME280;65907;53.640;10.050;2023-02-28T04:46:06;102455.28;;;22.84;30.12
76973;BME280;65907;53.640;10.050;2023-02-28T04:48:32;102460.13;;;22.90;29.96
76973;BME280;65907;53.640;10.050;2023-02-28T04:51:00;102458.94;;;22.82;29.96
76973;BME280;65907;53.640;10.050;2023-02-28T04:53:25;102464.44;;;22.91;29.75
76973;BME280;65907;53.640;10.050;2023-02-28T04:55:50;102463.63;;;22.91;29.64
76973;BME280;65907;53.640;10.050;2023-02-28T04:58:16;102464.22;;;22.95;29.88
76973;BME280;65907;53.640;10.050;2023-02-28T05:00:41;102464.06;;;22.98;29.93
76973;BME280;65907;53.640;10.050;2023-02-28T05:03:06;102466.97;;;22.93;29.81
76973;BME280;65907;53.640;10.050;2023-02-28T05:05:34;102466.69;;;22.98;29.64
76973;BME280;65907;53.640;10.050;2023-02-28T05:08:04;102461.00;;;22.91;29.72
76973;BME280;65907;53.640;10.050;2023-02-28T05:10:32;102460.78;;;22.94;29.71
76973;BME280;65907;53.640;10.050;2023-02-28T05:13:00;102455.53;;;22.94;29.83
76973;BME280;65907;53.640;10.050;2023-02-28T05:15:25;102458.91;;;22.96;29.84
76973;BME280;65907;53.640;10.050;2023-02-28T05:17:53;102461.63;;;22.95;29.64
76973;BME280;65907;53.640;10.050;2023-02-28T05:20:18;102454.50;;;22.97;29.74
76973;BME280;65907;53.640;10.050;2023-02-28T05:22:43;102451.72;;;22.85;29.90
76973;BME280;65907;53.640;10.050;2023-02-28T05:25:12;102463.31;;;22.96;29.74
76973;BME280;65907;53.640;10.050;2023-02-28T05:27:40;102463.31;;;22.96;29.64
76973;BME280;65907;53.640;10.050;2023-02-28T05:30:06;102469.06;;;22.88;29.76
76973;BME280;65907;53.640;10.050;2023-02-28T05:32:31;102467.38;;;22.87;29.70
76973;BME280;65907;53.640;10.050;2023-02-28T05:35:00;102460.78;;;22.94;29.71
76973;BME280;65907;53.640;10.050;2023-02-28T05:37:35;102463.63;;;22.91;29.71
76973;BME280;65907;53.640;10.050;2023-02-28T05:40:01;102472.03;;;22.96;29.58
76973;BME280;65907;53.640;10.050;2023-02-28T05:42:26;102472.72;;;22.85;29.71
76973;BME280;65907;53.640;10.050;2023-02-28T05:44:51;102477.28;;;22.82;29.71
76973;BME280;65907;53.640;10.050;2023-02-28T05:47:16;102486.75;;;22.84;29.74
76973;BME280;65907;53.640;10.050;2023-02-28T05:49:42;102490.41;;;22.82;29.62
76973;BME280;65907;53.640;10.050;2023-02-28T05:52:07;102480.97;;;22.79;29.63
76973;BME280;65907;53.640;10.050;2023-02-28T05:54:36;102485.53;;;22.90;29.87
76973;BME280;65907;53.640;10.050;2023-02-28T05:57:03;102478.97;;;22.83;29.69
76973;BME280;65907;53.640;10.050;2023-02-28T05:59:28;102486.03;;;22.82;29.68
76973;BME280;65907;53.640;10.050;2023-02-28T06:01:53;102481.59;;;22.83;29.42
76973;BME280;65907;53.640;10.050;2023-02-28T06:04:19;102490.13;;;22.86;29.62
76973;BME280;65907;53.640;10.050;2023-02-28T06:06:45;102488.56;;;22.84;29.53
76973;BME280;65907;53.640;10.050;2023-02-28T06:09:11;102478.44;;;22.77;30.11
76973;BME280;65907;53.640;10.050;2023-02-28T06:11:36;102483.59;;;22.79;29.82
76973;BME280;65907;53.640;10.050;2023-02-28T06:14:01;102485.56;;;22.75;29.79
76973;BME280;65907;53.640;10.050;2023-02-28T06:16:27;102479.09;;;22.81;29.98
76973;BME280;65907;53.640;10.050;2023-02-28T06:18:53;102491.06;;;22.85;29.66
76973;BME280;65907;53.640;10.050;2023-02-28T06:21:21;102487.41;;;22.88;29.54
76973;BME280;65907;53.640;10.050;2023-02-28T06:23:49;102491.19;;;22.84;29.89
76973;BME280;65907;53.640;10.050;2023-02-28T06:26:16;102497.25;;;22.84;29.51
76973;BME280;65907;53.640;10.050;2023-02-28T06:28:44;102498.47;;;22.78;29.56
76973;BME280;65907;53.640;10.050;2023-02-28T06:31:13;102503.97;;;22.88;29.63
76973;BME280;65907;53.640;10.050;2023-02-28T06:33:39;102507.69;;;22.71;30.06
76973;BME280;65907;53.640;10.050;2023-02-28T06:36:05;102503.09;;;22.75;29.65
76973;BME280;65907;53.640;10.050;2023-02-28T06:38:30;102508.91;;;22.66;29.53
76973;BME280;65907;53.640;10.050;2023-02-28T06:40:56;102512.94;;;22.71;29.24
76973;BME280;65907;53.640;10.050;2023-02-28T06:43:24;102517.22;;;22.72;29.31
76973;BME280;65907;53.640;10.050;2023-02-28T06:45:50;102519.78;;;22.74;29.42
76973;BME280;65907;53.640;10.050;2023-02-28T06:48:15;102517.97;;;22.74;29.70
76973;BME280;65907;53.640;10.050;2023-02-28T06:50:43;102516.56;;;22.69;29.33
76973;BME280;65907;53.640;10.050;2023-02-28T06:53:09;102516.22;;;22.75;29.22
76973;BME280;65907;53.640;10.050;2023-02-28T06:55:34;102520.94;;;22.83;29.29
76973;BME280;65907;53.640;10.050;2023-02-28T06:58:02;102520.50;;;22.76;29.38
76973;BME280;65907;53.640;10.050;2023-02-28T07:00:27;102516.94;;;22.77;29.22
76973;BME280;65907;53.640;10.050;2023-02-28T07:02:55;102521.66;;;22.99;28.77
76973;BME280;65907;53.640;10.050;2023-02-28T07:05:21;102519.50;;;23.06;28.84
76973;BME280;65907;53.640;10.050;2023-02-28T07:07:46;102517.41;;;23.11;28.63
76973;BME280;65907;53.640;10.050;2023-02-28T07:10:12;102530.56;;;23.24;28.48
76973;BME280;65907;53.640;10.050;2023-02-28T07:12:39;102532.09;;;23.28;28.67
76973;BME280;65907;53.640;10.050;2023-02-28T07:15:04;102533.47;;;23.34;28.40
76973;BME280;65907;53.640;10.050;2023-02-28T07:17:30;102534.22;;;23.36;28.47
76973;BME280;65907;53.640;10.050;2023-02-28T07:19:57;102524.78;;;23.33;28.39
76973;BME280;65907;53.640;10.050;2023-02-28T07:22:23;102530.78;;;23.36;28.57
76973;BME280;65907;53.640;10.050;2023-02-28T07:24:48;102529.28;;;23.31;28.51
76973;BME280;65907;53.640;10.050;2023-02-28T07:27:13;102532.34;;;23.38;28.36
76973;BME280;65907;53.640;10.050;2023-02-28T07:29:50;102537.16;;;23.31;28.35
76973;BME280;65907;53.640;10.050;2023-02-28T07:32:15;102545.97;;;23.30;28.52
76973;BME280;65907;53.640;10.050;2023-02-28T07:34:43;102549.34;;;23.32;28.40
76973;BME280;65907;53.640;10.050;2023-02-28T07:37:08;102542.41;;;23.31;28.42
76973;BME280;65907;53.640;10.050;2023-02-28T07:39:34;102543.03;;;23.35;28.29
76973;BME280;65907;53.640;10.050;2023-02-28T07:41:59;102548.00;;;23.40;28.55
76973;BME280;65907;53.640;10.050;2023-02-28T07:44:28;102548.00;;;23.40;28.34
76973;BME280;65907;53.640;10.050;2023-02-28T07:46:56;102548.09;;;23.38;28.24
76973;BME280;65907;53.640;10.050;2023-02-28T07:49:21;102545.38;;;23.40;28.55
76973;BME280;65907;53.640;10.050;2023-02-28T07:51:47;102543.28;;;23.45;28.60
76973;BME280;65907;53.640;10.050;2023-02-28T07:54:13;102546.56;;;23.48;28.33
76973;BME280;65907;53.640;10.050;2023-02-28T07:56:38;102544.88;;;23.47;28.44
76973;BME280;65907;53.640;10.050;2023-02-28T07:59:03;102536.38;;;23.57;28.29
76973;BME280;65907;53.640;10.050;2023-02-28T08:01:28;102542.16;;;23.62;28.20
76973;BME280;65907;53.640;10.050;2023-02-28T08:03:54;102540.19;;;23.66;28.18
76973;BME280;65907;53.640;10.050;2023-02-28T08:06:21;102545.03;;;23.72;27.99
76973;BME280;65907;53.640;10.050;2023-02-28T08:08:47;102539.28;;;23.39;28.15
76973;BME280;65907;53.640;10.050;2023-02-28T08:11:13;102537.06;;;23.33;28.40
76973;BME280;65907;53.640;10.050;2023-02-28T08:13:38;102541.56;;;23.31;28.69
76973;BME280;65907;53.640;10.050;2023-02-28T08:16:04;102538.16;;;23.43;28.98
76973;BME280;65907;53.640;10.050;2023-02-28T08:18:29;102535.97;;;23.63;29.03
76973;BME280;65907;53.640;10.050;2023-02-28T08:20:56;102536.38;;;23.57;29.20
76973;BME280;65907;53.640;10.050;2023-02-28T08:23:22;102531.56;;;23.63;28.99
76973;BME280;65907;53.640;10.050;2023-02-28T08:25:56;102537.28;;;23.43;29.42
76973;BME280;65907;53.640;10.050;2023-02-28T08:28:24;102546.44;;;23.50;29.05
76973;BME280;65907;53.640;10.050;2023-02-28T08:30:49;102548.25;;;23.49;29.06
76973;BME280;65907;53.640;10.050;2023-02-28T08:33:14;102543.16;;;23.33;29.29
76973;BME280;65907;53.640;10.050;2023-02-28T08:35:40;102548.81;;;23.13;29.59
76973;BME280;65907;53.640;10.050;2023-02-28T08:38:05;102555.22;;;23.36;28.61
76973;BME280;65907;53.640;10.050;2023-02-28T08:40:30;102547.94;;;23.54;28.92
76973;BME280;65907;53.640;10.050;2023-02-28T08:42:56;102550.47;;;23.69;28.93
76973;BME280;65907;53.640;10.050;2023-02-28T08:45:21;102543.56;;;23.81;28.89
76973;BME280;65907;53.640;10.050;2023-02-28T08:47:46;102549.47;;;23.84;28.64
76973;BME280;65907;53.640;10.050;2023-02-28T08:50:14;102550.59;;;23.67;29.19
76973;BME280;65907;53.640;10.050;2023-02-28T08:52:43;102554.53;;;23.47;29.17
76973;BME280;65907;53.640;10.050;2023-02-28T08:55:09;102560.97;;;23.28;29.10
76973;BME280;65907;53.640;10.050;2023-02-28T08:57:34;102554.69;;;23.31;29.16
76973;BME280;65907;53.640;10.050;2023-02-28T09:00:03;102558.44;;;23.27;29.46
76973;BME280;65907;53.640;10.050;2023-02-28T09:02:30;102555.53;;;23.31;29.49
76973;BME280;65907;53.640;10.050;2023-02-28T09:04:56;102560.78;;;23.31;29.36
76973;BME280;65907;53.640;10.050;2023-02-28T09:07:21;102554.19;;;23.24;29.52
76973;BME280;65907;53.640;10.050;2023-02-28T09:09:47;102560.59;;;23.20;29.34
76973;BME280;65907;53.640;10.050;2023-02-28T09:12:19;102560.13;;;23.13;29.76
76973;BME280;65907;53.640;10.050;2023-02-28T09:14:44;102561.56;;;23.04;29.70
76973;BME280;65907;53.640;10.050;2023-02-28T09:17:09;102570.31;;;22.90;26.64
76973;BME280;65907;53.640;10.050;2023-02-28T09:19:37;102563.28;;;22.33;27.26
76973;BME280;65907;53.640;10.050;2023-02-28T09:22:02;102573.97;;;22.44;27.57
76973;BME280;65907;53.640;10.050;2023-02-28T09:24:27;102563.91;;;22.22;27.94
76973;BME280;65907;53.640;10.050;2023-02-28T09:26:53;102567.13;;;22.42;27.89
76973;BME280;65907;53.640;10.050;2023-02-28T09:29:20;102569.16;;;22.08;29.26
76973;BME280;65907;53.640;10.050;2023-02-28T09:31:45;102565.16;;;22.45;27.93
76973;BME280;65907;53.640;10.050;2023-02-28T09:34:12;102559.19;;;22.87;28.26
76973;BME280;65907;53.640;10.050;2023-02-28T09:36:37;102559.69;;;23.06;28.02
76973;BME280;65907;53.640;10.050;2023-02-28T09:39:03;102558.72;;;23.22;28.04
76973;BME280;65907;53.640;10.050;2023-02-28T09:41:29;102563.81;;;23.11;28.36
76973;BME280;65907;53.640;10.050;2023-02-28T09:44:00;102555.91;;;23.25;28.24
76973;BME280;65907;53.640;10.050;2023-02-28T09:46:29;102553.47;;;23.22;28.42
76973;BME280;65907;53.640;10.050;2023-02-28T09:48:58;102557.31;;;23.16;28.50
76973;BME280;65907;53.640;10.050;2023-02-28T09:51:32;102555.91;;;23.25;28.40
76973;BME280;65907;53.640;10.050;2023-02-28T09:53:59;102557.50;;;23.28;28.18
76973;BME280;65907;53.640;10.050;2023-02-28T09:56:29;102553.00;;;23.15;28.50
76973;BME280;65907;53.640;10.050;2023-02-28T09:58:57;102553.88;;;23.16;28.72
76973;BME280;65907;53.640;10.050;2023-02-28T10:06:41;102552.91;;;23.31;28.38
76973;BME280;65907;53.640;10.050;2023-02-28T10:09:20;102557.66;;;23.39;28.37
76973;BME280;65907;53.640;10.050;2023-02-28T10:11:52;102556.53;;;23.43;28.20
76973;BME280;65907;53.640;10.050;2023-02-28T10:14:21;102552.53;;;23.51;28.30
76973;BME280;65907;53.640;10.050;2023-02-28T10:16:48;102552.50;;;23.38;28.63
76973;BME280;65907;53.640;10.050;2023-02-28T10:24:33;102552.59;;;23.36;28.61
76973;BME280;65907;53.640;10.050;2023-02-28T10:27:01;102550.91;;;23.35;28.64
76973;BME280;65907;53.640;10.050;2023-02-28T10:29:30;102543.03;;;23.35;28.92
76973;BME280;65907;53.640;10.050;2023-02-28T10:31:56;102556.31;;;23.46;28.88
76973;BME280;65907;53.640;10.050;2023-02-28T10:34:22;102548.13;;;23.51;28.69
76973;BME280;65907;53.640;10.050;2023-02-28T10:36:48;102542.66;;;23.41;29.01
76973;BME280;65907;53.640;10.050;2023-02-28T10:41:58;102554.63;;;23.45;28.87
76973;BME280;65907;53.640;10.050;2023-02-28T10:44:24;102546.03;;;23.43;28.60
76973;BME280;65907;53.640;10.050;2023-02-28T10:46:50;102547.38;;;23.49;28.52
76973;BME280;65907;53.640;10.050;2023-02-28T10:49:23;102550.00;;;23.49;28.66
76973;BME280;65907;53.640;10.050;2023-02-28T10:51:51;102539.59;;;23.20;29.56
76973;BME280;65907;53.640;10.050;2023-02-28T10:54:21;102544.44;;;23.41;29.15
76973;BME280;65907;53.640;10.050;2023-02-28T10:59:34;102544.75;;;23.89;28.64
76973;BME280;65907;53.640;10.050;2023-02-28T11:02:00;102544.44;;;23.94;28.63
76973;BME280;65907;53.640;10.050;2023-02-28T11:09:24;102538.47;;;24.05;28.73
76973;BME280;65907;53.640;10.050;2023-02-28T11:11:54;102530.66;;;23.90;28.72
76973;BME280;65907;53.640;10.050;2023-02-28T11:14:26;102532.75;;;23.85;28.75
76973;BME280;65907;53.640;10.050;2023-02-28T11:16:52;102534.75;;;23.82;29.13
76973;BME280;65907;53.640;10.050;2023-02-28T11:19:23;102533.00;;;23.42;29.47
76973;BME280;65907;53.640;10.050;2023-02-28T11:21:55;102527.19;;;23.37;28.85
76973;BME280;65907;53.640;10.050;2023-02-28T11:24:24;102525.16;;;23.27;28.80
76973;BME280;65907;53.640;10.050;2023-02-28T11:26:50;102525.81;;;23.31;28.81
76973;BME280;65907;53.640;10.050;2023-02-28T11:29:25;102526.56;;;23.33;28.76
76973;BME280;65907;53.640;10.050;2023-02-28T11:34:35;102524.94;;;22.46;28.80
76973;BME280;65907;53.640;10.050;2023-02-28T11:37:08;102519.31;;;22.53;30.08
76973;BME280;65907;53.640;10.050;2023-02-28T11:39:35;102518.41;;;22.96;29.65
76973;BME280;65907;53.640;10.050;2023-02-28T11:46:53;102508.56;;;23.54;29.03
76973;BME280;65907;53.640;10.050;2023-02-28T11:49:37;102514.56;;;23.69;28.57
76973;BME280;65907;53.640;10.050;2023-02-28T11:52:24;102515.50;;;23.68;29.01
76973;BME280;65907;53.640;10.050;2023-02-28T11:59:58;102506.06;;;23.78;29.14
76973;BME280;65907;53.640;10.050;2023-02-28T12:07:41;102509.94;;;23.86;29.36
76973;BME280;65907;53.640;10.050;2023-02-28T12:18:28;102491.03;;;23.94;29.36
76973;BME280;65907;53.640;10.050;2023-02-28T12:26:13;102491.78;;;23.29;29.33
76973;BME280;65907;53.640;10.050;2023-02-28T12:28:41;102484.09;;;23.26;30.01
76973;BME280;65907;53.640;10.050;2023-02-28T12:31:12;102485.69;;;23.29;29.87
76973;BME280;65907;53.640;10.050;2023-02-28T12:33:45;102483.53;;;23.36;29.60
76973;BME280;65907;53.640;10.050;2023-02-28T12:36:12;102480.41;;;23.43;29.55
76973;BME280;65907;53.640;10.050;2023-02-28T12:38:44;102480.06;;;23.48;29.63
76973;BME280;65907;53.640;10.050;2023-02-28T12:41:12;102471.56;;;23.44;29.31
76973;BME280;65907;53.640;10.050;2023-02-28T12:43:45;102468.38;;;23.39;29.37
76973;BME280;65907;53.640;10.050;2023-02-28T12:46:17;102462.53;;;23.48;29.57
76973;BME280;65907;53.640;10.050;2023-02-28T12:48:46;102456.13;;;23.40;29.50
76973;BME280;65907;53.640;10.050;2023-02-28T12:51:13;102462.97;;;23.42;29.59
76973;BME280;65907;53.640;10.050;2023-02-28T12:56:12;102465.69;;;23.41;29.54
76973;BME280;65907;53.640;10.050;2023-02-28T12:58:50;102456.84;;;23.42;29.47
76973;BME280;65907;53.640;10.050;2023-02-28T13:07:00;102446.66;;;23.50;29.73
76973;BME280;65907;53.640;10.050;2023-02-28T13:09:31;102440.69;;;23.61;29.42
76973;BME280;65907;53.640;10.050;2023-02-28T13:11:56;102436.72;;;23.42;30.16
76973;BME280;65907;53.640;10.050;2023-02-28T13:19:22;102423.25;;;23.60;29.53
76973;BME280;65907;53.640;10.050;2023-02-28T13:21:48;102419.06;;;23.70;29.46
76973;BME280;65907;53.640;10.050;2023-02-28T13:29:39;102424.41;;;23.69;29.75
76973;BME280;65907;53.640;10.050;2023-02-28T13:34:40;102420.53;;;22.81;30.12
76973;BME280;65907;53.640;10.050;2023-02-28T13:37:43;102420.97;;;23.15;30.15
76973;BME280;65907;53.640;10.050;2023-02-28T13:40:26;102416.75;;;23.40;29.87
76973;BME280;65907;53.640;10.050;2023-02-28T13:46:05;102406.78;;;23.58;29.66
76973;BME280;65907;53.640;10.050;2023-02-28T13:48:32;102409.19;;;23.61;29.71
76973;BME280;65907;53.640;10.050;2023-02-28T13:50:57;102414.78;;;23.69;29.58
76973;BME280;65907;53.640;10.050;2023-02-28T13:58:40;102399.00;;;23.82;29.40
76973;BME280;65907;53.640;10.050;2023-02-28T14:08:59;102400.69;;;23.83;29.26
76973;BME280;65907;53.640;10.050;2023-02-28T14:11:27;102403.19;;;23.72;29.83
76973;BME280;65907;53.640;10.050;2023-02-28T14:13:53;102393.53;;;23.72;29.81
76973;BME280;65907;53.640;10.050;2023-02-28T14:16:22;102392.19;;;23.67;29.99
76973;BME280;65907;53.640;10.050;2023-02-28T14:19:00;102406.47;;;23.62;29.81
76973;BME280;65907;53.640;10.050;2023-02-28T14:34:51;102409.63;;;23.14;29.96
76973;BME280;65907;53.640;10.050;2023-02-28T14:37:26;102411.06;;;23.05;29.67
76973;BME280;65907;53.640;10.050;2023-02-28T14:39:51;102407.19;;;23.11;29.68
76973;BME280;65907;53.640;10.050;2023-02-28T14:42:36;102410.94;;;22.94;30.20
76973;BME280;65907;53.640;10.050;2023-02-28T14:45:03;102398.88;;;23.04;29.83
76973;BME280;65907;53.640;10.050;2023-02-28T14:47:30;102406.59;;;23.08;29.58
76973;BME280;65907;53.640;10.050;2023-02-28T14:49:56;102397.09;;;22.92;29.91
76973;BME280;65907;53.640;10.050;2023-02-28T14:52:23;102396.25;;;22.91;29.99
76973;BME280;65907;53.640;10.050;2023-02-28T14:57:31;102395.47;;;23.17;29.96